Time;durP1;ratioP1;P1;durP2;ratioP2;P2;SDS_P1;SDS_P2;PMS_P1;PMS_P2;Temp;Humidity;BMP_temperature;BMP_pressure;BME280_temperature;BME280_humidity;BME280_pressure;Samples;Min_cycle;Max_cycle;Signal;HPM_P1;HPM_P2
2021/06/09 00:01:26;;;;;;;7.20;6.38;;;15.30;84.30;;;;;;5068567;28;20040;-80
2021/06/09 00:03:52;;;;;;;6.55;5.93;;;15.30;83.40;;;;;;5058389;28;20063;-79
2021/06/09 00:06:18;;;;;;;6.47;5.78;;;15.30;83.00;;;;;;5069205;28;20016;-79
2021/06/09 00:08:43;;;;;;;6.75;6.10;;;15.30;82.70;;;;;;5070010;28;20155;-79
2021/06/09 00:11:10;;;;;;;7.97;6.75;;;15.30;82.30;;;;;;5064625;28;20025;-78
2021/06/09 00:13:36;;;;;;;7.78;6.65;;;15.10;83.60;;;;;;5068889;28;20347;-79
2021/06/09 00:16:07;;;;;;;8.90;7.38;;;14.80;85.20;;;;;;5069455;28;20024;-79
2021/06/09 00:18:33;;;;;;;8.15;7.20;;;14.80;84.80;;;;;;5071023;28;20078;-79
2021/06/09 00:20:59;;;;;;;8.23;7.13;;;14.90;84.70;;;;;;5071118;28;20028;-78
2021/06/09 00:23:29;;;;;;;11.15;7.55;;;14.90;84.70;;;;;;5051091;28;20035;-78
2021/06/09 00:25:57;;;;;;;11.95;7.03;;;14.90;84.70;;;;;;5053817;28;20120;-78
2021/06/09 00:28:22;;;;;;;8.18;7.22;;;14.90;84.60;;;;;;5044116;28;20469;-78
2021/06/09 00:30:49;;;;;;;8.63;7.57;;;14.80;85.10;;;;;;5072676;28;20082;-79
2021/06/09 00:33:14;;;;;;;9.27;7.28;;;14.80;85.40;;;;;;5069999;28;20530;-78
2021/06/09 00:35:40;;;;;;;11.05;6.97;;;14.90;84.60;;;;;;5066976;28;20049;-80
2021/06/09 00:38:06;;;;;;;8.57;7.32;;;14.80;84.80;;;;;;5069948;28;20063;-79
2021/06/09 00:40:33;;;;;;;12.15;7.60;;;14.80;84.90;;;;;;5072305;28;20025;-79
2021/06/09 00:43:10;;;;;;;8.77;7.60;;;14.70;85.50;;;;;;5063344;28;20057;-79
2021/06/09 00:45:37;;;;;;;8.55;7.38;;;14.60;86.00;;;;;;5046199;28;20029;-78
2021/06/09 00:48:04;;;;;;;8.85;7.50;;;14.70;85.50;;;;;;5067979;28;20075;-78
2021/06/09 00:50:30;;;;;;;9.52;7.50;;;14.60;85.70;;;;;;5066936;28;20085;-78
2021/06/09 00:53:27;;;;;;;13.07;8.35;;;14.50;86.20;;;;;;5063380;28;20410;-78
2021/06/09 00:55:41;;;;;;;10.50;7.65;;;14.50;86.50;;;;;;5067282;28;20055;-78
2021/06/09 00:58:08;;;;;;;12.70;7.82;;;14.60;85.80;;;;;;5081494;28;20499;-78
2021/06/09 01:00:34;;;;;;;9.18;7.70;;;14.50;85.90;;;;;;5069423;28;20043;-78
2021/06/09 01:03:00;;;;;;;9.45;7.95;;;14.50;86.40;;;;;;5068703;28;20475;-78
2021/06/09 01:05:26;;;;;;;9.48;7.90;;;14.40;86.30;;;;;;5051798;28;20423;-78
2021/06/09 01:07:52;;;;;;;9.25;6.30;;;14.50;85.10;;;;;;5066303;28;20091;-79
2021/06/09 01:10:18;;;;;;;9.32;7.72;;;14.50;83.90;;;;;;5062931;28;20078;-79
2021/06/09 01:12:44;;;;;;;11.18;7.68;;;14.50;84.40;;;;;;5068182;28;20035;-79
2021/06/09 01:15:10;;;;;;;10.15;7.47;;;14.50;85.00;;;;;;5050143;28;20118;-79
2021/06/09 01:17:36;;;;;;;12.98;8.00;;;14.50;85.10;;;;;;5067345;28;20047;-79
2021/06/09 01:20:03;;;;;;;9.85;6.60;;;14.40;85.70;;;;;;5061770;28;20511;-79
2021/06/09 01:22:29;;;;;;;10.40;7.60;;;14.30;86.30;;;;;;5059687;28;20021;-79
2021/06/09 01:24:55;;;;;;;9.70;7.10;;;14.20;87.00;;;;;;5053921;28;20039;-79
2021/06/09 01:27:21;;;;;;;11.23;7.22;;;14.20;87.50;;;;;;5071419;28;20467;-79
2021/06/09 01:29:47;;;;;;;9.48;7.07;;;14.20;87.70;;;;;;5054174;28;20021;-80
2021/06/09 01:32:13;;;;;;;9.20;7.25;;;14.30;86.60;;;;;;5067653;28;20035;-79
2021/06/09 01:34:39;;;;;;;11.10;7.47;;;14.20;86.00;;;;;;5068578;28;20554;-79
2021/06/09 01:37:04;;;;;;;8.45;6.95;;;14.20;85.90;;;;;;5069787;28;20063;-79
2021/06/09 01:39:30;;;;;;;8.10;7.30;;;14.20;85.90;;;;;;5069819;28;20462;-79
2021/06/09 01:41:56;;;;;;;8.95;7.18;;;14.30;85.50;;;;;;5066098;28;20461;-79
2021/06/09 01:44:21;;;;;;;8.30;6.72;;;14.30;85.10;;;;;;5067321;28;20032;-79
2021/06/09 01:46:47;;;;;;;8.13;6.40;;;14.30;84.80;;;;;;5052346;28;20055;-79
2021/06/09 01:49:15;;;;;;;8.70;6.57;;;14.30;84.80;;;;;;5068056;28;20057;-79
2021/06/09 01:51:42;;;;;;;9.85;7.53;;;14.10;85.00;;;;;;5067651;28;20024;-79
2021/06/09 01:54:09;;;;;;;10.57;7.38;;;14.10;85.30;;;;;;5057904;28;20032;-80
2021/06/09 01:56:36;;;;;;;10.35;7.05;;;14.10;85.80;;;;;;5068426;28;20277;-79
2021/06/09 01:59:16;;;;;;;9.63;7.10;;;14.00;86.40;;;;;;5067782;28;20794;-78
2021/06/09 02:01:43;;;;;;;9.07;6.80;;;13.90;86.70;;;;;;5068018;28;20033;-79
2021/06/09 02:04:10;;;;;;;9.98;6.75;;;14.00;85.90;;;;;;5069104;28;20033;-79
2021/06/09 02:06:42;;;;;;;10.02;7.03;;;13.90;85.10;;;;;;5071313;28;20046;-79
2021/06/09 02:09:11;;;;;;;8.45;6.63;;;13.90;85.70;;;;;;5066296;28;20045;-79
2021/06/09 02:11:42;;;;;;;7.50;6.70;;;13.80;86.00;;;;;;5048972;28;20079;-79
2021/06/09 02:14:08;;;;;;;8.65;6.63;;;13.80;85.50;;;;;;5053911;28;20092;-79
2021/06/09 02:16:39;;;;;;;9.55;6.15;;;13.70;85.80;;;;;;5047178;28;20071;-79
2021/06/09 02:19:06;;;;;;;9.50;6.93;;;13.80;85.90;;;;;;5069851;28;20032;-79
2021/06/09 02:21:36;;;;;;;9.13;7.18;;;13.80;86.10;;;;;;5065321;28;20025;-79
2021/06/09 02:24:03;;;;;;;9.90;6.70;;;13.70;86.60;;;;;;5092486;28;20016;-80
2021/06/09 02:26:29;;;;;;;11.10;6.85;;;13.80;86.80;;;;;;5084022;28;20019;-79
2021/06/09 02:28:57;;;;;;;11.30;7.57;;;13.70;86.80;;;;;;5075492;28;20031;-80
2021/06/09 02:31:24;;;;;;;9.55;6.93;;;13.70;87.30;;;;;;5073268;28;20044;-80
2021/06/09 02:33:49;;;;;;;10.50;6.95;;;13.70;86.80;;;;;;5075472;28;20028;-79
2021/06/09 02:36:15;;;;;;;9.48;7.07;;;13.70;86.60;;;;;;5052297;28;20055;-79
2021/06/09 02:38:42;;;;;;;10.02;7.32;;;13.60;87.10;;;;;;5075184;28;20028;-79
2021/06/09 02:41:09;;;;;;;10.63;7.65;;;13.60;87.10;;;;;;5074746;28;20049;-79
2021/06/09 02:43:35;;;;;;;9.85;7.05;;;13.50;87.60;;;;;;5055591;28;20111;-80
2021/06/09 02:46:14;;;;;;;10.02;7.63;;;13.30;88.90;;;;;;5064487;28;20025;-79
2021/06/09 02:48:46;;;;;;;9.20;6.80;;;13.40;88.80;;;;;;5060353;28;20411;-79
2021/06/09 02:51:17;;;;;;;9.88;7.68;;;13.50;88.20;;;;;;5081791;28;20025;-79
2021/06/09 02:54:01;;;;;;;9.25;7.43;;;13.50;88.00;;;;;;5073251;28;20020;-80
2021/06/09 02:56:36;;;;;;;12.15;8.10;;;13.50;88.50;;;;;;5076839;28;20017;-79
2021/06/09 02:59:18;;;;;;;10.88;7.95;;;13.40;89.40;;;;;;5047590;28;20107;-80
2021/06/09 03:02:05;;;;;;;11.63;7.78;;;13.30;89.40;;;;;;5073637;28;20035;-80
2021/06/09 03:04:40;;;;;;;11.57;8.63;;;13.40;89.50;;;;;;5056965;28;20055;-79
2021/06/09 03:07:16;;;;;;;9.55;7.50;;;13.50;88.60;;;;;;5067836;28;20023;-79
2021/06/09 03:10:01;;;;;;;9.93;7.78;;;13.50;88.20;;;;;;5069523;28;20374;-79
2021/06/09 03:12:52;;;;;;;11.27;7.45;;;13.50;88.40;;;;;;5059943;28;20024;-78
2021/06/09 03:15:41;;;;;;;9.75;7.32;;;13.50;88.40;;;;;;5090358;28;20166;-79
2021/06/09 03:18:16;;;;;;;10.23;6.95;;;13.50;87.80;;;;;;5077709;28;20299;-79
2021/06/09 03:20:54;;;;;;;9.70;7.35;;;13.60;87.50;;;;;;5077320;28;20028;-80
2021/06/09 03:23:38;;;;;;;8.27;6.28;;;13.50;86.70;;;;;;5070042;28;20115;-80
2021/06/09 03:26:31;;;;;;;7.80;5.95;;;13.50;85.70;;;;;;5077452;28;20124;-79
2021/06/09 03:29:11;;;;;;;9.63;6.15;;;13.50;85.50;;;;;;5052890;28;20021;-79
2021/06/09 03:31:51;;;;;;;8.38;6.72;;;13.50;85.50;;;;;;5075800;28;20415;-79
2021/06/09 03:34:20;;;;;;;11.43;7.45;;;13.50;85.90;;;;;;5077585;28;20017;-79
2021/06/09 03:36:48;;;;;;;10.80;7.15;;;13.50;87.00;;;;;;5077114;28;20021;-79
2021/06/09 03:39:18;;;;;;;9.07;7.15;;;13.40;87.00;;;;;;5072493;28;20028;-79
2021/06/09 03:41:52;;;;;;;10.02;6.78;;;13.50;86.90;;;;;;5080411;28;20482;-79
2021/06/09 03:44:24;;;;;;;7.22;5.97;;;13.40;87.00;;;;;;5088734;28;20027;-79
2021/06/09 03:46:51;;;;;;;9.07;6.25;;;13.40;86.50;;;;;;5074360;28;20024;-78
2021/06/09 03:49:18;;;;;;;9.82;6.82;;;13.50;86.50;;;;;;5053082;28;20025;-78
2021/06/09 03:51:45;;;;;;;9.02;6.80;;;13.60;86.80;;;;;;5070227;28;20366;-80
2021/06/09 03:54:11;;;;;;;8.88;6.55;;;13.50;87.20;;;;;;5058182;28;20459;-80
2021/06/09 03:56:42;;;;;;;13.80;6.97;;;13.50;86.70;;;;;;5075253;28;20028;-80
2021/06/09 03:59:09;;;;;;;8.10;6.40;;;13.50;86.80;;;;;;5071920;28;20073;-80
2021/06/09 04:01:40;;;;;;;7.82;6.20;;;13.40;86.30;;;;;;5071882;28;20045;-80
2021/06/09 04:04:07;;;;;;;8.55;6.05;;;13.40;86.40;;;;;;5057265;28;20028;-81
2021/06/09 04:06:36;;;;;;;7.00;6.20;;;13.30;86.90;;;;;;5069306;28;20610;-80
2021/06/09 04:09:02;;;;;;;9.20;6.47;;;13.30;87.30;;;;;;5069711;28;20017;-79
2021/06/09 04:11:28;;;;;;;8.20;6.05;;;13.30;87.70;;;;;;5075727;28;20016;-81
2021/06/09 04:13:56;;;;;;;9.38;7.05;;;13.40;87.70;;;;;;5054143;28;20561;-79
2021/06/09 04:16:26;;;;;;;10.60;6.78;;;13.50;88.00;;;;;;5070541;28;20025;-80
2021/06/09 04:18:53;;;;;;;8.02;6.57;;;13.50;87.60;;;;;;5070530;28;20135;-80
2021/06/09 04:21:19;;;;;;;10.50;6.68;;;13.60;87.10;;;;;;5074663;28;20056;-80
2021/06/09 04:23:46;;;;;;;8.25;6.95;;;13.70;87.70;;;;;;5066537;28;20082;-79
2021/06/09 04:26:15;;;;;;;8.75;6.88;;;13.70;88.00;;;;;;5069169;28;20174;-79
2021/06/09 04:28:44;;;;;;;9.13;7.20;;;13.80;88.00;;;;;;5071896;28;20088;-79
2021/06/09 04:31:13;;;;;;;9.32;6.85;;;13.80;87.30;;;;;;5069406;28;20032;-80
2021/06/09 04:33:40;;;;;;;8.05;6.20;;;13.90;87.80;;;;;;5069398;28;20025;-80
2021/06/09 04:36:11;;;;;;;9.52;7.13;;;13.90;88.00;;;;;;5074476;28;20044;-78
2021/06/09 04:38:38;;;;;;;9.45;7.32;;;14.00;87.60;;;;;;5068159;28;20020;-79
2021/06/09 04:41:04;;;;;;;11.77;7.25;;;14.00;87.50;;;;;;5070128;28;21956;-80
2021/06/09 04:43:30;;;;;;;10.38;7.88;;;14.10;87.80;;;;;;5072013;28;20021;-78
2021/06/09 04:45:56;;;;;;;10.98;7.50;;;14.10;88.10;;;;;;5068081;28;20070;-79
2021/06/09 04:48:21;;;;;;;10.52;7.18;;;14.20;88.60;;;;;;5070541;28;20039;-80
2021/06/09 04:50:49;;;;;;;11.38;7.30;;;14.30;88.20;;;;;;5070914;28;20505;-79
2021/06/09 04:53:16;;;;;;;11.07;7.78;;;14.30;88.10;;;;;;5077108;28;20080;-79
2021/06/09 04:55:43;;;;;;;11.60;8.43;;;14.40;88.50;;;;;;5051367;28;20039;-79
2021/06/09 04:58:11;;;;;;;10.48;7.68;;;14.40;88.00;;;;;;5069902;28;20053;-79
2021/06/09 05:00:37;;;;;;;10.53;7.30;;;14.50;88.10;;;;;;5051235;28;20398;-79
2021/06/09 05:03:03;;;;;;;11.10;7.75;;;14.50;87.30;;;;;;5078918;28;20036;-80
2021/06/09 05:05:28;;;;;;;9.25;7.72;;;14.60;87.20;;;;;;5048393;28;20048;-81
2021/06/09 05:07:54;;;;;;;13.52;7.95;;;14.60;87.40;;;;;;5069566;28;20025;-80
2021/06/09 05:10:21;;;;;;;10.38;7.40;;;14.70;87.70;;;;;;5065485;28;20466;-79
2021/06/09 05:12:51;;;;;;;10.27;8.02;;;14.70;87.60;;;;;;5072301;28;20027;-80
2021/06/09 05:15:22;;;;;;;12.70;7.75;;;14.70;87.30;;;;;;5070778;28;20058;-81
2021/06/09 05:17:49;;;;;;;10.40;7.90;;;14.80;87.30;;;;;;5067254;28;20039;-80
2021/06/09 05:20:33;;;;;;;10.93;7.95;;;14.90;87.20;;;;;;5063425;28;20063;-80
2021/06/09 05:23:04;;;;;;;10.80;8.55;;;15.00;87.30;;;;;;5067074;28;20031;-80
2021/06/09 05:25:33;;;;;;;9.80;8.02;;;15.00;87.70;;;;;;5067936;28;20386;-80
2021/06/09 05:28:00;;;;;;;9.55;7.60;;;15.10;87.30;;;;;;5067827;28;20040;-78
2021/06/09 05:30:27;;;;;;;11.50;7.85;;;15.20;87.60;;;;;;5068046;28;20020;-80
2021/06/09 05:32:56;;;;;;;11.13;8.35;;;15.30;87.70;;;;;;5063886;28;20464;-80
2021/06/09 05:35:23;;;;;;;11.38;8.30;;;15.40;86.40;;;;;;5065489;28;20094;-80
2021/06/09 05:37:49;;;;;;;10.25;7.90;;;15.50;86.40;;;;;;5067822;28;20025;-79
2021/06/09 05:40:17;;;;;;;14.07;8.73;;;15.60;86.40;;;;;;5062967;28;20029;-79
2021/06/09 05:42:44;;;;;;;13.90;8.77;;;15.70;86.40;;;;;;5065594;28;20119;-79
2021/06/09 05:45:11;;;;;;;13.83;8.83;;;15.80;86.30;;;;;;5043620;28;20383;-79
2021/06/09 05:47:44;;;;;;;14.50;8.73;;;15.90;85.60;;;;;;5065933;28;20337;-79
2021/06/09 05:50:20;;;;;;;13.30;8.73;;;16.00;85.30;;;;;;5064777;28;20025;-80
2021/06/09 05:52:47;;;;;;;12.77;8.55;;;16.10;85.40;;;;;;5061948;28;20017;-80
2021/06/09 05:55:17;;;;;;;12.80;8.52;;;16.20;85.70;;;;;;5067643;28;20044;-80
2021/06/09 05:57:44;;;;;;;11.57;8.75;;;16.30;85.30;;;;;;5065909;28;20043;-80
2021/06/09 06:00:11;;;;;;;12.63;8.43;;;16.30;84.70;;;;;;5064209;28;20025;-79
2021/06/09 06:02:38;;;;;;;10.93;7.95;;;16.40;84.30;;;;;;5068239;28;20036;-80
2021/06/09 06:05:06;;;;;;;10.98;8.45;;;16.40;84.30;;;;;;5064055;28;20040;-79
2021/06/09 06:07:33;;;;;;;13.00;8.75;;;16.60;84.30;;;;;;5066595;28;20020;-80
2021/06/09 06:09:59;;;;;;;13.07;9.07;;;16.70;85.10;;;;;;5068097;28;20498;-79
2021/06/09 06:12:29;;;;;;;14.50;9.13;;;16.80;84.90;;;;;;5074271;28;20035;-80
2021/06/09 06:14:55;;;;;;;12.52;8.65;;;16.80;84.40;;;;;;5068786;28;20060;-79
2021/06/09 06:17:21;;;;;;;12.93;9.45;;;16.90;84.10;;;;;;5068619;28;20162;-80
2021/06/09 06:19:50;;;;;;;14.68;9.98;;;17.00;84.40;;;;;;5066877;28;20024;-80
2021/06/09 06:22:18;;;;;;;15.18;9.98;;;17.10;84.50;;;;;;5068906;28;20028;-79
2021/06/09 06:24:49;;;;;;;16.10;10.07;;;17.20;82.90;;;;;;5068665;28;20127;-79
2021/06/09 06:27:17;;;;;;;14.80;10.18;;;17.20;83.50;;;;;;5065914;28;20028;-79
2021/06/09 06:29:44;;;;;;;13.48;10.13;;;17.30;82.80;;;;;;5064741;28;20016;-77
2021/06/09 06:32:13;;;;;;;14.77;10.40;;;17.40;83.50;;;;;;5069519;28;20120;-78
2021/06/09 06:35:00;;;;;;;18.45;11.18;;;17.50;83.50;;;;;;5049706;28;20024;-78
2021/06/09 06:37:27;;;;;;;16.67;10.48;;;17.60;83.30;;;;;;5067692;28;20132;-78
2021/06/09 06:39:52;;;;;;;14.57;10.75;;;17.60;81.70;;;;;;5046012;28;20561;-78
2021/06/09 06:42:19;;;;;;;16.45;11.05;;;17.70;81.90;;;;;;5067796;28;20650;-78
2021/06/09 06:44:45;;;;;;;16.38;10.63;;;17.80;83.70;;;;;;5050191;28;20379;-79
2021/06/09 06:47:12;;;;;;;14.98;10.75;;;17.90;81.90;;;;;;5064422;28;20025;-80
2021/06/09 06:49:38;;;;;;;18.52;11.98;;;18.00;81.50;;;;;;5075627;28;20554;-79
2021/06/09 06:52:05;;;;;;;16.02;11.02;;;18.00;81.50;;;;;;5063560;28;20021;-78
2021/06/09 06:54:31;;;;;;;16.10;10.77;;;18.10;82.00;;;;;;5064550;28;20123;-78
2021/06/09 06:56:58;;;;;;;19.20;11.45;;;18.10;79.40;;;;;;5052963;28;20029;-79
2021/06/09 06:59:25;;;;;;;16.92;11.23;;;18.20;79.60;;;;;;5071628;28;20102;-78
2021/06/09 07:01:52;;;;;;;15.40;11.23;;;18.30;79.90;;;;;;5067726;28;20048;-78
2021/06/09 07:04:19;;;;;;;16.85;11.18;;;18.30;79.60;;;;;;5070876;28;20025;-78
2021/06/09 07:06:47;;;;;;;14.48;10.18;;;18.40;80.60;;;;;;5048252;28;20028;-78
2021/06/09 07:09:13;;;;;;;15.80;11.48;;;18.50;77.40;;;;;;5051494;28;20098;-79
2021/06/09 07:11:42;;;;;;;15.23;10.73;;;18.60;80.20;;;;;;5067451;28;20042;-78
2021/06/09 07:14:09;;;;;;;15.95;11.13;;;18.60;78.40;;;;;;5066544;28;20116;-78
2021/06/09 07:16:37;;;;;;;19.10;11.52;;;18.80;79.40;;;;;;5070947;28;20031;-79
2021/06/09 07:19:05;;;;;;;17.45;11.10;;;18.90;77.70;;;;;;5069173;28;20069;-78
2021/06/09 07:21:32;;;;;;;17.02;11.63;;;18.90;75.80;;;;;;5067637;28;20040;-78
2021/06/09 07:23:59;;;;;;;16.20;10.85;;;18.90;79.40;;;;;;5071962;28;22655;-78
2021/06/09 07:26:28;;;;;;;14.40;10.20;;;19.00;76.00;;;;;;5074487;28;20056;-78
2021/06/09 07:28:56;;;;;;;17.17;11.77;;;19.10;77.30;;;;;;5070414;28;20043;-77
2021/06/09 07:31:28;;;;;;;14.60;10.15;;;19.20;76.60;;;;;;5070541;28;20495;-78
2021/06/09 07:33:54;;;;;;;16.70;11.02;;;19.40;77.00;;;;;;5071743;28;20024;-79
2021/06/09 07:36:24;;;;;;;16.92;11.18;;;19.50;75.20;;;;;;5066888;28;20017;-78
2021/06/09 07:38:55;;;;;;;15.25;10.75;;;19.50;75.30;;;;;;5047689;28;20025;-79
2021/06/09 07:41:24;;;;;;;15.05;11.35;;;19.60;72.80;;;;;;5066993;28;20091;-79
2021/06/09 07:43:52;;;;;;;15.18;10.57;;;19.60;74.60;;;;;;5066095;28;20566;-78
2021/06/09 07:46:23;;;;;;;14.40;11.77;;;19.60;73.50;;;;;;5070327;28;20928;-81
2021/06/09 07:48:51;;;;;;;17.10;11.05;;;19.70;72.10;;;;;;5071476;28;20396;-79
2021/06/09 07:51:18;;;;;;;19.20;11.55;;;19.70;73.70;;;;;;5072882;28;20081;-78
2021/06/09 07:53:46;;;;;;;14.57;10.90;;;19.70;73.70;;;;;;5067851;28;20016;-78
2021/06/09 07:56:15;;;;;;;15.25;10.95;;;19.80;73.50;;;;;;5060999;28;20064;-77
2021/06/09 07:58:42;;;;;;;13.88;10.52;;;19.90;73.50;;;;;;5063483;28;20052;-81
2021/06/09 08:01:08;;;;;;;15.63;10.32;;;19.90;73.70;;;;;;5063307;28;20036;-77
2021/06/09 08:03:36;;;;;;;24.17;13.88;;;20.10;73.40;;;;;;5063295;28;20471;-79
2021/06/09 08:06:02;;;;;;;19.05;12.20;;;20.10;74.20;;;;;;5066008;28;20599;-78
2021/06/09 08:08:29;;;;;;;14.65;11.40;;;20.10;73.90;;;;;;5063681;28;20094;-78
2021/06/09 08:10:55;;;;;;;17.33;10.90;;;20.20;72.60;;;;;;5069260;28;20040;-79
2021/06/09 08:13:21;;;;;;;16.25;11.38;;;20.20;75.30;;;;;;5055605;28;20047;-79
2021/06/09 08:15:47;;;;;;;18.17;11.90;;;20.40;72.90;;;;;;5072039;28;20517;-80
2021/06/09 08:18:13;;;;;;;15.90;10.48;;;20.50;72.10;;;;;;5052881;28;20029;-83
2021/06/09 08:21:05;;;;;;;16.08;11.40;;;20.50;71.80;;;;;;5047553;28;20025;-82
2021/06/09 08:23:32;;;;;;;16.67;11.25;;;20.70;73.80;;;;;;5052455;28;21365;-82
2021/06/09 08:25:58;;;;;;;17.75;11.60;;;20.70;71.50;;;;;;5068824;28;21009;-82
2021/06/09 08:28:24;;;;;;;13.57;10.30;;;20.80;70.60;;;;;;5065808;28;20024;-81
2021/06/09 08:30:50;;;;;;;15.70;11.32;;;20.70;68.00;;;;;;5069130;28;20414;-82
2021/06/09 08:33:16;;;;;;;14.95;10.93;;;20.90;71.30;;;;;;5064705;28;20028;-81
2021/06/09 08:35:41;;;;;;;13.52;11.25;;;20.90;69.10;;;;;;5063050;28;20784;-81
2021/06/09 08:38:07;;;;;;;13.63;10.52;;;21.00;69.30;;;;;;5061384;28;20085;-80
2021/06/09 08:40:33;;;;;;;15.02;11.10;;;21.10;70.80;;;;;;5044570;28;20036;-80
2021/06/09 08:42:59;;;;;;;15.50;10.63;;;21.10;69.60;;;;;;5068522;28;20430;-80
2021/06/09 08:45:25;;;;;;;14.05;10.52;;;21.20;69.20;;;;;;5052153;28;20033;-80
2021/06/09 08:47:51;;;;;;;15.10;11.23;;;21.20;68.20;;;;;;5067657;28;20466;-81
2021/06/09 08:50:19;;;;;;;16.52;11.68;;;21.30;68.90;;;;;;5045770;28;20024;-80
2021/06/09 08:52:48;;;;;;;14.48;10.90;;;21.40;67.60;;;;;;5071272;28;20016;-81
2021/06/09 08:55:15;;;;;;;14.90;10.98;;;21.40;67.60;;;;;;5068851;28;20510;-80
2021/06/09 08:57:41;;;;;;;13.77;10.77;;;21.50;67.90;;;;;;5065467;28;20094;-81
2021/06/09 09:00:10;;;;;;;16.55;11.50;;;21.60;68.10;;;;;;5065552;28;20507;-80
2021/06/09 09:02:37;;;;;;;16.92;11.32;;;21.70;69.90;;;;;;5067038;28;20036;-80
2021/06/09 09:05:03;;;;;;;13.17;10.23;;;21.70;70.10;;;;;;5055204;28;20032;-80
2021/06/09 09:07:29;;;;;;;14.20;10.73;;;21.80;66.40;;;;;;5070244;28;20281;-81
2021/06/09 09:10:02;;;;;;;14.32;10.25;;;21.90;65.90;;;;;;5065394;28;20043;-81
2021/06/09 09:12:28;;;;;;;14.40;11.65;;;22.00;68.70;;;;;;5071580;28;20474;-81
2021/06/09 09:14:53;;;;;;;16.00;12.20;;;22.10;67.90;;;;;;5068105;28;20021;-81
2021/06/09 09:17:19;;;;;;;15.27;11.13;;;22.10;67.10;;;;;;5066438;28;20088;-80
2021/06/09 09:19:46;;;;;;;18.95;11.80;;;22.00;67.10;;;;;;5063670;28;20048;-80
2021/06/09 09:22:17;;;;;;;16.27;12.17;;;21.80;67.40;;;;;;5069254;28;20028;-81
2021/06/09 09:24:48;;;;;;;16.25;12.15;;;21.70;68.40;;;;;;5045194;28;20287;-81
2021/06/09 09:27:24;;;;;;;17.10;12.38;;;21.60;69.80;;;;;;5067347;28;20160;-81
2021/06/09 09:30:07;;;;;;;16.10;11.68;;;21.60;69.70;;;;;;5074099;28;20047;-79
2021/06/09 09:32:38;;;;;;;16.63;11.57;;;21.50;68.10;;;;;;5066780;28;20033;-82
2021/06/09 09:35:12;;;;;;;15.52;12.48;;;21.70;68.30;;;;;;5061456;28;20029;-80
2021/06/09 09:37:38;;;;;;;15.65;12.65;;;21.80;68.80;;;;;;5052101;28;20020;-82
2021/06/09 09:40:07;;;;;;;15.68;12.35;;;21.80;67.50;;;;;;5046194;28;20022;-79
2021/06/09 09:42:34;;;;;;;16.98;13.23;;;21.90;69.30;;;;;;5045275;28;20031;-83
2021/06/09 09:45:18;;;;;;;16.38;11.77;;;22.00;69.00;;;;;;5070923;28;20100;-82
2021/06/09 09:48:04;;;;;;;16.15;12.30;;;22.00;65.70;;;;;;5041767;28;20021;-83
2021/06/09 09:50:32;;;;;;;14.18;11.32;;;22.00;69.30;;;;;;5045989;28;20186;-83
2021/06/09 09:52:58;;;;;;;14.05;10.35;;;22.20;67.50;;;;;;5062769;28;20036;-82
2021/06/09 09:55:23;;;;;;;14.23;11.00;;;22.30;65.60;;;;;;5066547;28;20032;-83
2021/06/09 09:57:49;;;;;;;14.52;11.55;;;22.10;66.80;;;;;;5044716;28;20028;-83
2021/06/09 10:00:31;;;;;;;14.40;12.43;;;22.00;67.10;;;;;;5041279;28;20036;-82
2021/06/09 10:03:20;;;;;;;18.00;12.32;;;22.00;68.20;;;;;;5055617;28;20064;-84
2021/06/09 10:05:47;;;;;;;14.85;11.65;;;22.00;65.70;;;;;;5062563;28;20067;-83
2021/06/09 10:08:12;;;;;;;14.00;10.88;;;22.10;69.90;;;;;;5045357;28;20025;-83
2021/06/09 10:10:39;;;;;;;16.00;11.52;;;22.10;64.50;;;;;;5061685;28;20051;-84
2021/06/09 10:13:13;;;;;;;13.55;10.93;;;22.30;68.90;;;;;;5059502;28;20025;-82
2021/06/09 10:15:47;;;;;;;13.57;11.65;;;22.30;65.50;;;;;;5061549;28;20094;-84
2021/06/09 10:18:15;;;;;;;10.20;9.10;;;22.50;66.00;;;;;;5060324;28;20064;-83
2021/06/09 10:20:41;;;;;;;11.35;9.90;;;22.40;61.00;;;;;;5045637;28;20052;-83
2021/06/09 10:23:37;;;;;;;12.57;9.77;;;22.40;61.90;;;;;;5072526;28;20546;-82
2021/06/09 10:26:10;;;;;;;13.98;10.68;;;22.50;61.10;;;;;;5054992;28;20128;-83
2021/06/09 10:28:57;;;;;;;11.18;10.07;;;22.70;66.60;;;;;;5065178;28;20540;-84
2021/06/09 10:31:31;;;;;;;11.55;9.73;;;22.90;63.00;;;;;;5044701;28;20032;-83
2021/06/09 10:33:57;;;;;;;10.30;8.65;;;22.90;62.00;;;;;;5066797;28;20047;-84
2021/06/09 10:36:25;;;;;;;14.15;10.63;;;22.80;59.70;;;;;;5069364;28;20028;-83
2021/06/09 10:38:52;;;;;;;12.37;10.60;;;22.90;65.90;;;;;;5069132;28;20020;-83
2021/06/09 10:41:19;;;;;;;12.27;10.67;;;23.00;63.60;;;;;;5057533;28;20028;-81
2021/06/09 10:43:49;;;;;;;11.45;9.88;;;23.10;63.30;;;;;;5069173;28;20643;-82
2021/06/09 10:46:22;;;;;;;15.82;11.30;;;23.10;62.30;;;;;;5068838;28;20414;-83
2021/06/09 10:48:49;;;;;;;14.77;11.65;;;23.30;65.30;;;;;;5052983;28;20027;-83
2021/06/09 10:51:17;;;;;;;13.75;11.00;;;23.40;67.40;;;;;;5070518;28;20469;-83
2021/06/09 10:53:43;;;;;;;;;;;23.50;65.00;;;;;;5070912;28;20100;-83
2021/06/09 10:56:10;;;;;;;11.63;9.55;;;23.50;63.70;;;;;;5053503;28;19908;-83
2021/06/09 10:58:36;;;;;;;10.87;9.57;;;23.40;62.50;;;;;;5050066;28;20114;-83
2021/06/09 11:01:04;;;;;;;13.60;11.10;;;23.40;64.30;;;;;;5049942;28;20033;-82
2021/06/09 11:03:37;;;;;;;11.75;9.70;;;23.30;65.20;;;;;;5047698;28;20112;-83
2021/06/09 11:06:04;;;;;;;10.70;9.05;;;23.30;59.60;;;;;;5069743;28;20094;-84
2021/06/09 11:08:31;;;;;;;12.48;9.88;;;23.30;61.70;;;;;;5046601;28;20047;-84
2021/06/09 11:10:58;;;;;;;11.30;9.10;;;23.10;64.50;;;;;;5073194;28;20441;-83
2021/06/09 11:13:32;;;;;;;12.27;9.70;;;22.90;61.90;;;;;;5054789;28;20093;-82
2021/06/09 11:16:05;;;;;;;11.18;9.48;;;22.80;62.00;;;;;;5056078;28;20218;-83
2021/06/09 11:18:41;;;;;;;11.75;9.18;;;22.70;63.20;;;;;;5055276;28;20036;-82
2021/06/09 11:21:13;;;;;;;11.48;10.23;;;22.70;61.10;;;;;;5072413;28;20028;-82
2021/06/09 11:23:40;;;;;;;10.82;9.48;;;22.80;65.80;;;;;;5046621;28;20025;-83
2021/06/09 11:26:23;;;;;;;12.53;9.23;;;22.80;63.60;;;;;;5053213;28;20033;-84
2021/06/09 11:28:49;;;;;;;11.98;10.23;;;23.00;65.50;;;;;;5046589;28;20355;-83
2021/06/09 11:31:23;;;;;;;12.15;10.10;;;23.20;62.60;;;;;;5064537;28;20032;-83
2021/06/09 11:34:03;;;;;;;11.10;9.50;;;23.40;64.50;;;;;;5043469;28;20107;-83
2021/06/09 11:36:42;;;;;;;9.75;8.25;;;23.50;64.10;;;;;;5057655;28;20056;-82
2021/06/09 11:39:20;;;;;;;11.82;10.55;;;23.60;60.40;;;;;;5047478;28;20078;-83
2021/06/09 11:41:48;;;;;;;12.02;9.90;;;23.10;64.60;;;;;;5047353;28;20027;-83
2021/06/09 11:44:24;;;;;;;17.50;10.85;;;22.80;65.30;;;;;;5067570;28;20474;-83
2021/06/09 11:46:50;;;;;;;12.55;9.88;;;22.10;67.50;;;;;;5046721;28;20039;-82
2021/06/09 11:49:24;;;;;;;15.25;9.98;;;21.30;70.60;;;;;;5054138;28;20024;-82
2021/06/09 11:52:02;;;;;;;18.13;11.98;;;20.80;72.70;;;;;;5064926;28;20025;-82
2021/06/09 11:54:31;;;;;;;;;;;20.70;75.10;;;;;;5048993;28;20047;-82
2021/06/09 11:57:21;;;;;;;17.00;10.07;;;20.60;73.90;;;;;;5044239;28;19919;-82
2021/06/09 11:59:49;;;;;;;12.85;8.23;;;20.40;71.90;;;;;;5051336;28;20031;-81
2021/06/09 12:02:26;;;;;;;12.38;9.43;;;20.30;72.20;;;;;;5063786;28;20101;-82
2021/06/09 12:04:53;;;;;;;12.25;9.70;;;20.30;73.70;;;;;;5049279;28;20021;-81
2021/06/09 12:07:28;;;;;;;14.17;9.93;;;20.40;72.80;;;;;;5061888;28;20024;-83
2021/06/09 12:09:56;;;;;;;13.65;10.43;;;20.40;73.30;;;;;;5045837;28;20279;-83
2021/06/09 12:12:24;;;;;;;16.67;12.43;;;20.50;76.20;;;;;;5044820;28;20094;-82
2021/06/09 12:15:02;;;;;;;18.13;12.57;;;20.50;79.20;;;;;;5067522;28;20024;-83
2021/06/09 12:17:33;;;;;;;15.05;11.05;;;20.50;81.40;;;;;;5063429;28;20031;-83
2021/06/09 12:20:13;;;;;;;14.57;11.35;;;20.50;81.90;;;;;;5047276;28;20036;-83
2021/06/09 12:22:49;;;;;;;14.00;10.27;;;20.50;82.00;;;;;;5048368;28;20029;-83
2021/06/09 12:25:25;;;;;;;12.07;8.63;;;20.40;77.90;;;;;;5069318;28;20411;-83
2021/06/09 12:28:12;;;;;;;11.27;8.57;;;20.30;76.00;;;;;;5048402;28;20020;-83
2021/06/09 12:30:41;;;;;;;8.33;7.37;;;20.30;75.80;;;;;;5066142;28;20078;-83
2021/06/09 12:33:06;;;;;;;9.85;8.13;;;20.20;74.40;;;;;;5045278;28;20021;-83
2021/06/09 12:35:33;;;;;;;11.85;9.45;;;20.20;74.30;;;;;;5042860;28;20028;-84
2021/06/09 12:38:07;;;;;;;12.07;8.88;;;20.20;75.10;;;;;;5042929;28;20109;-84
2021/06/09 12:40:38;;;;;;;9.88;8.27;;;20.10;76.10;;;;;;5048543;28;20025;-82
2021/06/09 12:43:07;;;;;;;13.07;9.25;;;20.10;76.40;;;;;;5069167;28;20021;-83
2021/06/09 12:45:35;;;;;;;11.23;8.38;;;20.10;76.80;;;;;;5063401;28;20082;-83
2021/06/09 12:48:08;;;;;;;;;;;20.10;77.60;;;;;;5064580;28;20051;-84